Time;durP1;ratioP1;P1;durP2;ratioP2;P2;SDS_P1;SDS_P2;PMS_P1;PMS_P2;Temp;Humidity;BMP_temperature;BMP_pressure;BME280_temperature;BME280_humidity;BME280_pressure;Samples;Min_cycle;Max_cycle;Signal;HPM_P1;HPM_P2
2023/04/24 00:00:01;;;;;;;1.77;1.03;;;;;;;11.58;100.00;99200.50;5076648;28;20208;-73
2023/04/24 00:02:26;;;;;;;1.50;0.70;;;;;;;11.59;100.00;99197.84;5079784;28;20182;-73
2023/04/24 00:04:52;;;;;;;1.10;0.87;;;;;;;11.65;100.00;99198.56;5057531;28;20196;-73
2023/04/24 00:07:17;;;;;;;2.30;1.00;;;;;;;11.68;100.00;99201.06;5078973;28;20234;-73
2023/04/24 00:09:43;;;;;;;0.83;0.70;;;;;;;11.69;100.00;99197.59;5075310;28;20189;-74
2023/04/24 00:12:09;;;;;;;1.63;0.87;;;;;;;11.74;100.00;99201.72;5079163;28;20213;-73
2023/04/24 00:14:35;;;;;;;1.20;0.80;;;;;;;11.81;100.00;99186.81;5057242;28;20192;-73
2023/04/24 00:17:02;;;;;;;0.87;0.77;;;;;;;11.93;100.00;99192.50;5076242;28;21002;-73
2023/04/24 00:19:28;;;;;;;1.10;0.77;;;;;;;11.97;100.00;99181.97;5077385;28;20629;-73
2023/04/24 00:21:54;;;;;;;1.13;0.80;;;;;;;12.02;100.00;99179.28;5072658;28;20238;-74
2023/04/24 00:24:20;;;;;;;3.80;0.90;;;;;;;12.01;100.00;99195.75;5075673;28;20713;-74
2023/04/24 00:26:46;;;;;;;2.03;0.70;;;;;;;11.99;100.00;99207.91;5060714;28;20207;-74
2023/04/24 00:29:11;;;;;;;2.30;0.80;;;;;;;11.95;100.00;99199.34;5079991;28;20186;-74
2023/04/24 00:31:37;;;;;;;1.10;0.77;;;;;;;11.93;100.00;99201.16;5076145;28;20665;-73
2023/04/24 00:34:03;;;;;;;1.10;0.50;;;;;;;11.88;100.00;99203.88;5078927;28;20188;-73
2023/04/24 00:36:28;;;;;;;0.60;0.60;;;;;;;11.86;100.00;99202.22;5077272;28;20196;-73
2023/04/24 00:38:54;;;;;;;0.97;0.70;;;;;;;11.88;100.00;99197.84;5077011;28;20215;-73
2023/04/24 00:41:21;;;;;;;1.47;0.80;;;;;;;11.91;100.00;99192.56;5058948;28;20188;-73
2023/04/24 00:43:46;;;;;;;1.10;0.90;;;;;;;11.89;100.00;99199.53;5078753;28;20272;-72
2023/04/24 00:46:12;;;;;;;2.03;0.90;;;;;;;11.86;100.00;99197.03;5059733;28;20191;-73
2023/04/24 00:48:38;;;;;;;1.17;0.60;;;;;;;11.86;100.00;99202.22;5076730;28;20221;-73
2023/04/24 00:51:04;;;;;;;0.80;0.70;;;;;;;11.84;100.00;99204.00;5058692;28;20263;-73
2023/04/24 00:53:29;;;;;;;1.23;0.80;;;;;;;11.83;100.00;99195.41;5076875;28;20192;-74
2023/04/24 00:55:56;;;;;;;1.53;0.80;;;;;;;11.77;100.00;99198.19;5060496;28;20256;-73
2023/04/24 00:58:21;;;;;;;1.63;0.87;;;;;;;11.74;100.00;99199.13;5078163;28;20205;-74
2023/04/24 01:00:48;;;;;;;1.33;0.97;;;;;;;11.71;100.00;99200.97;5075242;28;20191;-73
2023/04/24 01:03:15;;;;;;;2.00;0.80;;;;;;;11.68;100.00;99201.91;5076127;28;20194;-73
2023/04/24 01:05:41;;;;;;;1.33;0.80;;;;;;;11.61;100.00;99194.38;5079619;28;20191;-73
2023/04/24 01:08:06;;;;;;;0.87;0.63;;;;;;;11.56;100.00;99194.50;5076289;28;20229;-73
2023/04/24 01:10:33;;;;;;;1.00;0.67;;;;;;;11.51;100.00;99196.38;5071764;28;22188;-73
2023/04/24 01:12:59;;;;;;;1.90;0.80;;;;;;;11.51;100.00;99193.78;5078010;28;20204;-73
2023/04/24 01:15:24;;;;;;;1.53;0.70;;;;;;;11.53;100.00;99185.09;5076545;28;20200;-73
2023/04/24 01:17:50;;;;;;;1.50;0.93;;;;;;;11.54;100.00;99186.81;5078904;28;20218;-73
2023/04/24 01:20:17;;;;;;;0.70;0.70;;;;;;;11.57;100.00;99189.28;5072146;28;20204;-74
2023/04/24 01:22:42;;;;;;;1.43;0.80;;;;;;;11.62;100.00;99186.56;5075484;28;20230;-74
2023/04/24 01:25:08;;;;;;;0.80;0.70;;;;;;;11.66;100.00;99189.91;5058164;28;20190;-73
2023/04/24 01:27:33;;;;;;;1.33;0.90;;;;;;;11.73;100.00;99191.38;5077952;28;20279;-73
2023/04/24 01:29:59;;;;;;;1.30;0.87;;;;;;;11.80;100.00;99194.66;5068964;28;20183;-74
2023/04/24 01:32:25;;;;;;;1.10;0.73;;;;;;;11.85;100.00;99195.34;5076431;28;20524;-74
2023/04/24 01:34:50;;;;;;;1.87;0.90;;;;;;;11.92;100.00;99194.25;5080667;28;20331;-75
2023/04/24 01:37:16;;;;;;;1.20;0.87;;;;;;;11.95;100.00;99198.50;5077859;28;20206;-74
2023/04/24 01:39:42;;;;;;;2.17;0.93;;;;;;;12.03;100.00;99188.75;5073595;28;20201;-73
2023/04/24 01:42:08;;;;;;;1.20;0.97;;;;;;;12.04;100.00;99193.03;5077290;28;20187;-74
2023/04/24 01:44:34;;;;;;;1.80;0.93;;;;;;;12.03;100.00;99199.97;5078352;28;20189;-73
2023/04/24 01:47:01;;;;;;;1.27;0.70;;;;;;;12.02;100.00;99194.84;5073996;28;20202;-73
2023/04/24 01:49:26;;;;;;;1.20;0.80;;;;;;;12.04;100.00;99204.28;5058330;28;20275;-74
2023/04/24 01:51:52;;;;;;;1.60;0.90;;;;;;;12.04;100.00;99193.91;5074079;28;21030;-73
2023/04/24 01:54:17;;;;;;;1.33;0.90;;;;;;;12.08;100.00;99184.25;5076937;28;20190;-74
2023/04/24 01:56:43;;;;;;;1.37;0.90;;;;;;;12.13;100.00;99186.69;5080196;28;20214;-73
2023/04/24 01:59:10;;;;;;;1.00;0.90;;;;;;;12.24;100.00;99186.34;5061328;28;20217;-73
2023/04/24 02:01:37;;;;;;;1.20;0.80;;;;;;;12.15;100.00;99180.59;5079370;28;20181;-72
2023/04/24 02:04:03;;;;;;;1.50;0.70;;;;;;;12.10;100.00;99174.69;5081062;28;20197;-73
2023/04/24 02:06:30;;;;;;;1.10;1.00;;;;;;;11.99;100.00;99176.78;5079229;28;20667;-73
2023/04/24 02:08:56;;;;;;;1.73;0.70;;;;;;;11.85;100.00;99172.88;5080283;28;20185;-74
2023/04/24 02:11:21;;;;;;;0.80;0.80;;;;;;;11.78;100.00;99173.97;5081670;28;20575;-73
2023/04/24 02:13:47;;;;;;;1.97;0.90;;;;;;;11.70;100.00;99171.59;5080585;28;20205;-73
2023/04/24 02:16:12;;;;;;;0.97;0.80;;;;;;;11.69;100.00;99175.09;5081196;28;20201;-73
2023/04/24 02:18:37;;;;;;;1.17;0.73;;;;;;;11.67;100.00;99181.22;5083013;28;20661;-74
2023/04/24 02:21:03;;;;;;;1.40;0.70;;;;;;;11.68;100.00;99175.16;5080883;28;20193;-72
2023/04/24 02:23:28;;;;;;;1.60;0.83;;;;;;;11.66;100.00;99175.19;5084173;28;20181;-73
2023/04/24 02:25:53;;;;;;;1.90;1.00;;;;;;;11.62;100.00;99176.19;5087035;28;20216;-73
2023/04/24 02:28:19;;;;;;;2.83;0.90;;;;;;;11.64;100.00;99176.13;5082566;28;20218;-73
2023/04/24 02:30:45;;;;;;;2.10;0.80;;;;;;;11.68;100.00;99180.34;5084169;28;20188;-73
2023/04/24 02:33:11;;;;;;;2.10;0.90;;;;;;;11.67;100.00;99179.47;5063943;28;20217;-73
2023/04/24 02:35:36;;;;;;;1.83;1.10;;;;;;;11.67;100.00;99182.06;5082425;28;20195;-73
2023/04/24 02:38:02;;;;;;;2.63;0.80;;;;;;;11.68;100.00;99188.09;5083256;28;20209;-73
2023/04/24 02:40:28;;;;;;;2.50;0.93;;;;;;;11.72;100.00;99189.72;5062630;28;20197;-73
2023/04/24 02:42:54;;;;;;;1.67;0.80;;;;;;;11.72;100.00;99187.97;5086884;28;20189;-73
2023/04/24 02:45:19;;;;;;;1.73;0.90;;;;;;;11.74;100.00;99201.72;5084723;28;20224;-73
2023/04/24 02:47:44;;;;;;;1.93;0.90;;;;;;;11.76;100.00;99214.63;5089281;28;20203;-73
2023/04/24 02:50:10;;;;;;;1.40;0.80;;;;;;;11.82;100.00;99223.94;5085856;28;20295;-72
2023/04/24 02:52:35;;;;;;;1.17;0.80;;;;;;;11.88;100.00;99231.53;5085851;28;20222;-73
2023/04/24 02:55:00;;;;;;;1.23;0.70;;;;;;;11.93;100.00;99229.66;5088651;28;20189;-73
2023/04/24 02:57:26;;;;;;;0.67;0.67;;;;;;;11.97;100.00;99231.25;5091030;28;20214;-73
2023/04/24 02:59:51;;;;;;;1.73;0.80;;;;;;;12.01;100.00;99229.47;5090623;28;20180;-73
2023/04/24 03:02:16;;;;;;;1.10;0.70;;;;;;;12.03;100.00;99236.28;5089214;28;20230;-73
2023/04/24 03:04:42;;;;;;;1.20;0.77;;;;;;;12.03;100.00;99253.56;5077771;28;20176;-72
2023/04/24 03:07:08;;;;;;;1.90;1.30;;;;;;;12.04;100.00;99257.84;5078250;28;20283;-73
2023/04/24 03:09:33;;;;;;;2.40;1.20;;;;;;;12.00;100.00;99269.25;5077097;28;20667;-73
2023/04/24 03:11:58;;;;;;;2.07;1.20;;;;;;;11.91;100.00;99265.16;5078734;28;20216;-73
2023/04/24 03:14:24;;;;;;;1.43;0.80;;;;;;;11.78;100.00;99261.25;5081770;28;20197;-74
2023/04/24 03:16:50;;;;;;;0.60;0.60;;;;;;;11.66;100.00;99262.47;5073674;28;20287;-74
2023/04/24 03:19:15;;;;;;;1.93;0.90;;;;;;;11.58;100.00;99273.88;5079050;28;20269;-73
2023/04/24 03:21:40;;;;;;;1.00;0.80;;;;;;;11.50;100.00;99270.69;5079897;28;20243;-74
2023/04/24 03:24:11;;;;;;;1.23;0.80;;;;;;;11.47;100.00;99272.53;5076254;28;20183;-74
2023/04/24 03:26:37;;;;;;;1.87;0.70;;;;;;;11.44;100.00;99301.94;5077702;28;20189;-73
2023/04/24 03:29:02;;;;;;;0.63;0.53;;;;;;;11.42;100.00;99302.00;5075209;28;20191;-73
2023/04/24 03:31:27;;;;;;;0.80;0.53;;;;;;;11.43;100.00;99302.84;5074799;28;20193;-74
2023/04/24 03:33:53;;;;;;;0.70;0.70;;;;;;;11.43;100.00;99306.28;5078320;28;20680;-73
2023/04/24 03:36:19;;;;;;;1.17;0.70;;;;;;;11.46;100.00;99301.91;5077298;28;20581;-73
2023/04/24 03:38:44;;;;;;;0.73;0.60;;;;;;;11.47;100.00;99306.22;5077941;28;20206;-74
2023/04/24 03:41:10;;;;;;;1.17;0.83;;;;;;;11.44;100.00;99302.81;5078366;28;20235;-74
2023/04/24 03:43:35;;;;;;;1.40;0.70;;;;;;;11.44;100.00;99310.59;5058993;28;20190;-73
2023/04/24 03:46:01;;;;;;;2.00;0.80;;;;;;;11.39;100.00;99317.63;5076774;28;20183;-73
2023/04/24 03:48:26;;;;;;;1.20;1.07;;;;;;;11.36;100.00;99309.94;5065776;28;20288;-73
2023/04/24 03:50:52;;;;;;;2.40;1.20;;;;;;;11.36;100.00;99319.47;5069960;28;20186;-73
2023/04/24 03:53:17;;;;;;;1.20;1.00;;;;;;;11.32;100.00;99313.53;5059810;28;20256;-73
2023/04/24 03:55:42;;;;;;;1.87;1.20;;;;;;;11.27;100.00;99320.56;5076069;28;20182;-73
2023/04/24 03:58:08;;;;;;;2.03;1.00;;;;;;;11.20;100.00;99321.59;5072080;28;20209;-73
2023/04/24 04:00:34;;;;;;;1.30;1.00;;;;;;;11.09;100.00;99322.75;5072937;28;20184;-72
2023/04/24 04:03:00;;;;;;;1.00;0.90;;;;;;;10.99;100.00;99331.66;5062475;28;20177;-73
2023/04/24 04:05:25;;;;;;;1.10;1.00;;;;;;;10.93;100.00;99334.38;5074233;28;20186;-73
2023/04/24 04:07:51;;;;;;;2.07;1.03;;;;;;;10.86;100.00;99333.69;5076046;28;21048;-73
2023/04/24 04:10:17;;;;;;;1.50;1.27;;;;;;;10.80;100.00;99334.72;5074812;28;20188;-73
2023/04/24 04:12:42;;;;;;;1.50;1.40;;;;;;;10.77;100.00;99345.13;5077356;28;20185;-73
2023/04/24 04:15:08;;;;;;;1.17;1.07;;;;;;;10.76;100.00;99351.19;5074908;28;20173;-73
2023/04/24 04:17:33;;;;;;;1.40;1.20;;;;;;;10.74;100.00;99350.38;5072199;28;20197;-73
2023/04/24 04:19:58;;;;;;;1.40;1.30;;;;;;;10.71;100.00;99344.44;5073229;28;20182;-73
2023/04/24 04:22:23;;;;;;;2.20;1.57;;;;;;;10.65;100.00;99348.91;5058160;28;20178;-74
2023/04/24 04:24:50;;;;;;;1.40;1.30;;;;;;;10.57;100.00;99347.38;5078647;28;20628;-73
2023/04/24 04:27:16;;;;;;;1.50;1.40;;;;;;;10.47;100.00;99352.75;5078630;28;20230;-73
2023/04/24 04:29:41;;;;;;;1.40;1.30;;;;;;;10.40;100.00;99351.22;5074323;28;20286;-72
2023/04/24 04:32:07;;;;;;;2.03;1.83;;;;;;;10.34;100.00;99359.94;5071305;28;20944;-73
2023/04/24 04:34:33;;;;;;;2.83;1.60;;;;;;;10.29;100.00;99358.31;5077768;28;20182;-73
2023/04/24 04:37:01;;;;;;;1.30;1.20;;;;;;;10.22;100.00;99353.28;5076216;28;20292;-73
2023/04/24 04:39:28;;;;;;;1.77;1.50;;;;;;;10.22;100.00;99355.00;5075261;28;20199;-73
2023/04/24 04:41:53;;;;;;;1.87;1.47;;;;;;;10.23;100.00;99361.88;5076427;28;20223;-73
2023/04/24 04:44:19;;;;;;;1.83;1.60;;;;;;;10.24;100.00;99361.00;5080383;28;20799;-73
2023/04/24 04:46:44;;;;;;;1.63;1.53;;;;;;;10.26;100.00;99363.56;5076794;28;20196;-73
2023/04/24 04:49:10;;;;;;;1.50;1.40;;;;;;;10.29;100.00;99368.66;5073883;28;20181;-73
2023/04/24 04:51:36;;;;;;;1.50;1.40;;;;;;;10.31;100.00;99369.47;5074385;28;20177;-73
2023/04/24 04:54:01;;;;;;;2.50;1.80;;;;;;;10.35;100.00;99371.13;5078610;28;20985;-73
2023/04/24 04:56:27;;;;;;;1.70;1.60;;;;;;;10.40;100.00;99376.22;5077767;28;20173;-72
2023/04/24 04:58:52;;;;;;;2.07;1.97;;;;;;;10.46;100.00;99376.91;5075160;28;20241;-73
2023/04/24 05:01:17;;;;;;;2.33;1.60;;;;;;;10.57;100.00;99375.84;5077884;28;20653;-73
2023/04/24 05:03:43;;;;;;;2.20;1.93;;;;;;;10.70;100.00;99378.97;5079476;28;20192;-73
2023/04/24 05:06:08;;;;;;;2.20;1.80;;;;;;;10.89;100.00;99385.41;5077669;28;20235;-73
2023/04/24 05:08:33;;;;;;;1.60;1.50;;;;;;;11.18;100.00;99391.56;5079610;28;20692;-73
2023/04/24 05:10:59;;;;;;;2.77;1.87;;;;;;;11.56;100.00;99391.44;5078286;28;20170;-73
2023/04/24 05:13:24;;;;;;;1.70;1.60;;;;;;;11.92;100.00;99399.09;5057253;28;21107;-73
2023/04/24 05:15:49;;;;;;;2.00;1.50;;;;;;;12.35;100.00;99396.97;5062510;28;20178;-73
2023/04/24 05:18:15;;;;;;;1.70;1.37;;;;;;;12.87;100.00;99399.66;5075744;28;20301;-73
2023/04/24 05:20:42;;;;;;;1.57;1.47;;;;;;;13.38;100.00;99410.13;5075270;28;20207;-73
2023/04/24 05:23:08;;;;;;;1.80;1.40;;;;;;;13.99;100.00;99404.47;5079304;28;20286;-73
2023/04/24 05:25:35;;;;;;;1.50;1.40;;;;;;;14.46;100.00;99413.13;5078763;28;20956;-73
2023/04/24 05:28:00;;;;;;;1.37;1.27;;;;;;;14.75;100.00;99414.63;5079235;28;20568;-73
2023/04/24 05:30:26;;;;;;;1.40;1.30;;;;;;;14.55;100.00;99411.91;5075477;28;20191;-73
2023/04/24 05:32:51;;;;;;;1.47;1.20;;;;;;;14.10;100.00;99426.66;5075510;28;20183;-73
2023/04/24 05:35:16;;;;;;;1.67;1.57;;;;;;;13.73;100.00;99431.47;5073836;28;20236;-73
2023/04/24 05:37:42;;;;;;;1.53;1.40;;;;;;;13.47;100.00;99432.38;5074710;28;20317;-73
2023/04/24 05:40:08;;;;;;;13.33;11.00;;;;;;;13.23;100.00;99437.47;5080100;28;20610;-73
2023/04/24 05:42:34;;;;;;;47.97;32.53;;;;;;;13.00;100.00;99440.84;5075103;28;20192;-73
2023/04/24 05:44:59;;;;;;;28.47;20.70;;;;;;;12.84;100.00;99449.13;5077971;28;20188;-73
2023/04/24 05:47:26;;;;;;;16.77;13.17;;;;;;;12.70;100.00;99448.72;5078213;28;20201;-73
2023/04/24 05:49:51;;;;;;;14.07;10.50;;;;;;;12.55;100.00;99447.44;5080151;28;20185;-73
2023/04/24 05:52:16;;;;;;;7.83;6.23;;;;;;;12.42;100.00;99453.00;5071554;28;20183;-73
2023/04/24 05:54:42;;;;;;;4.47;3.67;;;;;;;12.32;100.00;99455.00;5081460;28;20211;-73
2023/04/24 05:57:07;;;;;;;3.10;2.67;;;;;;;12.23;100.00;99455.28;5076951;28;20211;-73
2023/04/24 05:59:40;;;;;;;2.37;1.97;;;;;;;12.16;100.00;99456.34;5064084;28;20216;-73
2023/04/24 06:02:06;;;;;;;2.47;2.27;;;;;;;12.10;100.00;99459.13;5068806;28;20187;-73
2023/04/24 06:04:32;;;;;;;2.43;2.23;;;;;;;12.10;100.00;99464.31;5081004;28;20271;-73
2023/04/24 06:06:57;;;;;;;6.73;4.57;;;;;;;12.09;100.00;99463.47;5081466;28;21008;-71
2023/04/24 06:09:23;;;;;;;20.03;12.57;;;;;;;12.09;100.00;99466.06;5078543;28;20226;-73
2023/04/24 06:11:49;;;;;;;19.93;13.33;;;;;;;12.07;100.00;99470.44;5079822;28;20192;-73
2023/04/24 06:14:14;;;;;;;23.17;15.23;;;;;;;12.06;100.00;99466.13;5064920;28;20198;-73
2023/04/24 06:16:42;;;;;;;18.13;11.03;;;;;;;12.07;100.00;99469.59;5082918;28;20218;-73
2023/04/24 06:19:07;;;;;;;20.33;13.37;;;;;;;12.08;100.00;99472.13;5063793;28;21008;-73
2023/04/24 06:21:32;;;;;;;20.37;15.33;;;;;;;12.24;100.00;99476.88;5079827;28;20231;-73
2023/04/24 06:23:58;;;;;;;15.63;10.87;;;;;;;12.33;100.00;99476.59;5079553;28;20239;-73
2023/04/24 06:26:24;;;;;;;10.20;7.50;;;;;;;12.34;100.00;99473.97;5080920;28;20195;-73
2023/04/24 06:28:51;;;;;;;10.80;7.17;;;;;;;12.30;100.00;99479.31;5082417;28;20681;-73
2023/04/24 06:31:16;;;;;;;9.07;7.10;;;;;;;12.33;100.00;99474.00;5081868;28;20570;-73
2023/04/24 06:33:42;;;;;;;10.83;8.77;;;;;;;12.38;100.00;99490.28;5079848;28;20184;-73
2023/04/24 06:36:08;;;;;;;17.70;13.70;;;;;;;12.47;100.00;99484.00;5084325;28;20202;-73
2023/04/24 06:38:33;;;;;;;10.77;9.47;;;;;;;12.65;100.00;99487.78;5082176;28;20216;-73
2023/04/24 06:40:59;;;;;;;8.87;7.97;;;;;;;13.25;99.34;99487.63;5080855;28;20191;-74
2023/04/24 06:43:24;;;;;;;10.30;9.20;;;;;;;14.06;95.64;99484.91;5082872;28;20195;-73
2023/04/24 06:45:50;;;;;;;10.17;6.67;;;;;;;14.23;93.56;99492.09;5078048;28;20193;-73
2023/04/24 06:48:15;;;;;;;5.67;5.10;;;;;;;14.01;92.80;99492.88;5080619;28;20227;-74
2023/04/24 06:50:40;;;;;;;4.43;3.67;;;;;;;13.67;92.09;99494.94;5081129;28;20198;-73
2023/04/24 06:53:06;;;;;;;4.17;3.63;;;;;;;13.46;92.25;99498.25;5076967;28;20189;-73
2023/04/24 06:55:31;;;;;;;3.17;2.90;;;;;;;13.41;92.84;99501.00;5075955;28;20186;-74
2023/04/24 06:57:57;;;;;;;4.23;3.80;;;;;;;13.46;92.92;99495.66;5080912;28;20603;-72
2023/04/24 07:00:23;;;;;;;4.20;3.80;;;;;;;13.66;91.82;99493.22;5061963;28;20190;-74
2023/04/24 07:02:49;;;;;;;4.20;3.40;;;;;;;13.76;90.66;99504.16;5076190;28;20659;-73
2023/04/24 07:05:15;;;;;;;2.60;2.40;;;;;;;13.78;89.38;99497.13;5080955;28;20243;-74
2023/04/24 07:07:40;;;;;;;3.13;2.60;;;;;;;14.09;88.99;99501.25;5076607;28;20705;-73
2023/04/24 07:10:06;;;;;;;3.20;2.63;;;;;;;15.04;85.87;99501.19;5080370;28;20258;-73
2023/04/24 07:12:32;;;;;;;3.43;2.40;;;;;;;15.90;82.52;99492.47;5077659;28;20326;-74
2023/04/24 07:14:57;;;;;;;3.00;2.50;;;;;;;16.45;79.76;99492.56;5081080;28;20177;-73
2023/04/24 07:17:22;;;;;;;3.17;2.87;;;;;;;16.78;77.06;99496.31;5081268;28;22245;-73
2023/04/24 07:19:48;;;;;;;2.33;2.07;;;;;;;17.05;75.24;99495.94;5075135;28;20245;-74
2023/04/24 07:22:16;;;;;;;2.67;2.47;;;;;;;17.27;75.07;99502.72;5075177;28;20219;-73
2023/04/24 07:24:45;;;;;;;3.50;3.20;;;;;;;17.55;74.33;99501.31;5079453;28;20238;-74
2023/04/24 07:27:11;;;;;;;4.00;3.60;;;;;;;17.70;73.16;99505.78;5081056;28;20647;-74
2023/04/24 07:29:36;;;;;;;2.17;2.07;;;;;;;17.75;71.87;99511.63;5080128;28;20272;-74
2023/04/24 07:32:02;;;;;;;3.17;2.87;;;;;;;17.49;71.94;99519.03;5079112;28;20296;-73
2023/04/24 07:34:27;;;;;;;2.67;2.47;;;;;;;17.26;72.32;99517.56;5063408;28;20189;-74
2023/04/24 07:36:53;;;;;;;2.93;2.73;;;;;;;17.26;72.29;99514.94;5062785;28;20219;-74
2023/04/24 07:39:18;;;;;;;2.67;2.47;;;;;;;17.13;72.72;99521.69;5075445;28;20204;-74
2023/04/24 07:41:43;;;;;;;2.90;2.70;;;;;;;16.86;73.20;99524.69;5079430;28;20198;-74
2023/04/24 07:44:09;;;;;;;3.07;2.70;;;;;;;16.54;73.80;99529.66;5079051;28;20197;-74
2023/04/24 07:46:35;;;;;;;2.53;2.33;;;;;;;16.20;75.20;99524.16;5061398;28;20683;-74
2023/04/24 07:49:01;;;;;;;3.50;3.20;;;;;;;15.87;75.87;99537.81;5078971;28;20190;-73
2023/04/24 07:51:30;;;;;;;4.30;3.80;;;;;;;15.53;76.20;99544.41;5080380;28;20688;-74
2023/04/24 07:53:56;;;;;;;2.87;2.67;;;;;;;15.23;76.76;99545.56;5079867;28;20722;-74
2023/04/24 07:56:21;;;;;;;2.70;2.47;;;;;;;15.00;77.12;99558.69;5077156;28;20186;-75
2023/04/24 07:58:47;;;;;;;3.47;2.30;;;;;;;14.87;77.36;99551.34;5077511;28;20279;-74
2023/04/24 08:01:12;;;;;;;2.70;2.20;;;;;;;14.85;76.94;99553.16;5075699;28;20248;-74
2023/04/24 08:03:37;;;;;;;2.60;2.40;;;;;;;14.86;76.81;99554.00;5078207;28;20247;-75
2023/04/24 08:06:03;;;;;;;3.17;1.87;;;;;;;14.91;76.44;99562.50;5079933;28;20202;-74
2023/04/24 08:08:28;;;;;;;1.93;1.50;;;;;;;14.96;76.42;99563.19;5079488;28;20209;-74
2023/04/24 08:10:54;;;;;;;1.43;1.30;;;;;;;14.97;76.09;99564.00;5079744;28;20193;-75
2023/04/24 08:13:20;;;;;;;1.43;1.30;;;;;;;14.97;76.16;99585.72;5061089;28;20312;-74
2023/04/24 08:15:45;;;;;;;1.33;1.23;;;;;;;14.96;76.33;99580.53;5079940;28;20181;-72
2023/04/24 08:18:12;;;;;;;1.67;1.10;;;;;;;14.88;77.18;99593.88;5079780;28;20295;-74
2023/04/24 08:20:37;;;;;;;0.97;0.90;;;;;;;14.75;77.43;99585.66;5079146;28;20210;-73
2023/04/24 08:23:03;;;;;;;1.40;1.17;;;;;;;14.73;78.59;99590.09;5069351;28;20377;-74
2023/04/24 08:25:28;;;;;;;1.20;1.10;;;;;;;15.03;78.61;99600.25;5070991;28;20186;-75
2023/04/24 08:27:54;;;;;;;1.73;1.30;;;;;;;15.20;77.86;99612.63;5069535;28;20208;-75
2023/04/24 08:30:20;;;;;;;1.20;1.10;;;;;;;15.14;77.76;99621.53;5069394;28;20201;-74
2023/04/24 08:32:45;;;;;;;1.63;1.40;;;;;;;14.97;78.27;99623.94;5069619;28;20193;-75
2023/04/24 08:35:11;;;;;;;1.70;0.90;;;;;;;14.75;78.37;99627.31;5072843;28;20306;-74
2023/04/24 08:37:37;;;;;;;0.93;0.80;;;;;;;14.57;78.86;99624.47;5080446;28;20295;-75
2023/04/24 08:40:08;;;;;;;1.73;1.40;;;;;;;14.55;79.35;99620.22;5074423;28;20199;-74
2023/04/24 08:42:36;;;;;;;1.53;1.00;;;;;;;14.69;79.21;99619.75;5059712;28;20201;-74
2023/04/24 08:45:02;;;;;;;1.00;1.00;;;;;;;14.90;78.92;99620.72;5076985;28;20235;-74
2023/04/24 08:47:29;;;;;;;1.87;1.20;;;;;;;15.06;78.79;99614.00;5080683;28;20730;-74
2023/04/24 08:49:55;;;;;;;1.73;1.20;;;;;;;15.21;79.07;99604.75;5074967;28;20186;-74
2023/04/24 08:52:21;;;;;;;1.53;1.30;;;;;;;15.29;78.61;99606.22;5057185;28;20208;-74
2023/04/24 08:54:47;;;;;;;1.70;1.40;;;;;;;15.42;77.84;99609.19;5076552;28;20201;-73
2023/04/24 08:57:14;;;;;;;1.63;1.30;;;;;;;15.48;76.76;99601.97;5081146;28;20209;-74
2023/04/24 08:59:40;;;;;;;1.93;1.30;;;;;;;15.67;76.66;99617.72;5078964;28;20284;-74
2023/04/24 09:02:09;;;;;;;1.37;1.10;;;;;;;16.01;75.22;99605.03;5075832;28;20189;-74
2023/04/24 09:04:35;;;;;;;1.57;1.30;;;;;;;16.32;73.15;99618.56;5080494;28;20195;-75
2023/04/24 09:07:03;;;;;;;1.07;1.00;;;;;;;16.53;72.31;99625.44;5077965;28;20206;-74
2023/04/24 09:09:30;;;;;;;1.53;1.30;;;;;;;16.69;71.93;99632.56;5058039;28;20733;-73
2023/04/24 09:11:57;;;;;;;4.00;1.30;;;;;;;16.75;72.01;99635.75;5079672;28;20201;-74
2023/04/24 09:14:23;;;;;;;1.90;1.30;;;;;;;16.77;71.27;99635.72;5079021;28;20203;-74
2023/04/24 09:16:49;;;;;;;0.97;0.97;;;;;;;16.69;71.90;99633.44;5079016;28;20210;-73
2023/04/24 09:19:15;;;;;;;2.67;1.40;;;;;;;16.56;71.88;99640.97;5076497;28;20221;-74
2023/04/24 09:21:42;;;;;;;3.20;1.30;;;;;;;16.44;71.03;99641.50;5076012;28;20225;-74
2023/04/24 09:24:17;;;;;;;1.87;1.40;;;;;;;16.29;71.30;99638.66;5075436;28;20269;-74
2023/04/24 09:26:43;;;;;;;2.23;1.23;;;;;;;16.09;71.91;99646.47;5080395;28;20215;-74
2023/04/24 09:29:17;;;;;;;1.70;1.60;;;;;;;15.98;71.54;99645.19;5077007;28;20296;-75
2023/04/24 09:31:43;;;;;;;1.37;1.23;;;;;;;16.06;71.70;99649.22;5074146;28;20234;-73
2023/04/24 09:34:08;;;;;;;2.20;1.40;;;;;;;16.26;71.74;99651.84;5079231;28;20183;-74
2023/04/24 09:36:37;;;;;;;1.33;1.23;;;;;;;16.35;71.54;99653.19;5077437;28;20185;-74
2023/04/24 09:39:15;;;;;;;2.03;1.30;;;;;;;16.26;71.48;99672.72;5062234;28;20202;-74
2023/04/24 09:41:50;;;;;;;1.50;1.40;;;;;;;16.03;71.70;99663.25;5070742;28;20193;-74
2023/04/24 09:44:19;;;;;;;3.10;1.60;;;;;;;15.85;71.32;99663.09;5054983;28;20193;-74
2023/04/24 09:46:49;;;;;;;1.50;1.40;;;;;;;15.63;71.20;99665.69;5075194;28;20700;-75
2023/04/24 09:49:16;;;;;;;1.77;1.40;;;;;;;15.37;71.70;99674.53;5076226;28;20479;-72
2023/04/24 09:51:42;;;;;;;2.03;1.50;;;;;;;15.30;72.17;99678.28;5076256;28;20180;-74
2023/04/24 09:54:20;;;;;;;2.23;1.57;;;;;;;15.24;72.56;99680.22;5077320;28;20189;-74
2023/04/24 09:56:48;;;;;;;1.40;1.30;;;;;;;15.07;72.63;99683.47;5073275;28;20886;-74
2023/04/24 09:59:15;;;;;;;1.47;1.30;;;;;;;15.02;72.99;99685.38;5079327;28;20209;-74
2023/04/24 10:01:49;;;;;;;1.80;1.40;;;;;;;15.20;72.93;99686.44;5075634;28;20729;-74
2023/04/24 10:04:26;;;;;;;1.43;1.27;;;;;;;15.58;72.50;99674.59;5060215;28;20194;-73
2023/04/24 10:06:54;;;;;;;2.07;1.20;;;;;;;15.85;71.86;99680.53;5060463;28;20240;-74
2023/04/24 10:09:21;;;;;;;2.43;1.23;;;;;;;16.11;71.43;99682.03;5073255;28;20234;-74
2023/04/24 10:11:49;;;;;;;1.63;1.53;;;;;;;16.29;70.35;99690.00;5077266;28;20208;-74
2023/04/24 10:14:17;;;;;;;2.67;1.40;;;;;;;16.49;70.14;99678.69;5079169;28;20357;-74
2023/04/24 10:16:43;;;;;;;1.70;1.60;;;;;;;16.67;69.60;99678.81;5079180;28;20213;-73
2023/04/24 10:19:10;;;;;;;2.33;1.57;;;;;;;16.87;69.70;99680.53;5061838;28;20197;-74
2023/04/24 10:21:42;;;;;;;2.50;1.50;;;;;;;16.99;69.29;99695.72;5077134;28;20192;-74
2023/04/24 10:24:08;;;;;;;1.77;1.60;;;;;;;17.01;68.29;99696.50;5081066;28;20262;-74
2023/04/24 10:26:34;;;;;;;1.60;1.50;;;;;;;17.12;68.53;99690.78;5083020;28;20196;-73
2023/04/24 10:29:00;;;;;;;3.13;1.43;;;;;;;17.23;68.94;99698.13;5073571;28;20200;-72
2023/04/24 10:31:29;;;;;;;1.40;1.30;;;;;;;17.30;69.03;99691.72;5078831;28;20183;-74
2023/04/24 10:33:55;;;;;;;3.73;1.90;;;;;;;17.20;68.19;99700.88;5063837;28;20279;-74
2023/04/24 10:36:23;;;;;;;2.20;1.63;;;;;;;16.99;68.38;99703.56;5082302;28;20623;-74
2023/04/24 10:38:49;;;;;;;1.63;1.40;;;;;;;16.72;68.79;99703.00;5078932;28;20214;-74
2023/04/24 10:41:23;;;;;;;1.50;1.40;;;;;;;16.38;69.67;99702.69;5078406;28;20219;-74
2023/04/24 10:44:03;;;;;;;1.87;1.67;;;;;;;15.99;71.08;99706.91;5082890;28;20190;-73
2023/04/24 10:46:30;;;;;;;2.77;1.87;;;;;;;15.56;71.97;99713.81;5079794;28;20185;-73
2023/04/24 10:48:55;;;;;;;1.20;1.10;;;;;;;15.21;72.65;99709.00;5062636;28;20215;-74
2023/04/24 10:51:42;;;;;;;1.33;1.20;;;;;;;14.89;73.51;99703.25;5061254;28;20276;-73
2023/04/24 10:54:22;;;;;;;1.30;1.20;;;;;;;14.80;73.80;99723.56;5082117;28;20285;-73
2023/04/24 10:56:48;;;;;;;2.40;1.50;;;;;;;14.92;73.92;99720.50;5080328;28;20259;-74
2023/04/24 10:59:24;;;;;;;3.03;1.60;;;;;;;15.08;73.86;99726.88;5081453;28;20209;-74
2023/04/24 11:01:55;;;;;;;1.50;1.40;;;;;;;15.18;73.97;99721.31;5079288;28;20194;-73
2023/04/24 11:04:33;;;;;;;1.50;1.20;;;;;;;15.19;74.23;99721.25;5062095;28;20738;-73
2023/04/24 11:06:58;;;;;;;1.67;1.20;;;;;;;15.28;74.01;99720.03;5063623;28;20205;-73
2023/04/24 11:09:27;;;;;;;1.23;1.13;;;;;;;15.52;73.77;99723.47;5082333;28;20713;-73
2023/04/24 11:12:14;;;;;;;1.60;1.50;;;;;;;15.82;73.66;99717.13;5078565;28;20185;-74
2023/04/24 11:15:00;;;;;;;1.17;1.10;;;;;;;16.12;72.92;99722.88;5080845;28;20196;-73
2023/04/24 11:17:33;;;;;;;1.50;1.40;;;;;;;16.28;72.29;99720.50;5078472;28;20314;-74
2023/04/24 11:20:06;;;;;;;1.50;1.40;;;;;;;16.24;71.43;99731.97;5080463;28;20208;-74
2023/04/24 11:22:35;;;;;;;1.40;1.30;;;;;;;15.98;71.84;99736.50;5081594;28;20182;-74